createdAt,value
2017-01-16T11:06:33.460Z,20
2017-01-16T11:07:44.329Z,20
2017-01-16T11:08:55.115Z,25
2017-01-16T11:10:05.937Z,25
2017-01-16T11:11:16.764Z,25
2017-01-16T11:12:27.995Z,25
2017-01-16T11:13:38.825Z,30
2017-01-16T11:14:49.807Z,30
2017-01-16T11:16:00.677Z,35
2017-01-16T11:17:11.714Z,30
2017-01-16T11:18:22.809Z,25
2017-01-16T11:19:33.803Z,30
2017-01-16T11:20:44.693Z,35
2017-01-16T11:21:55.698Z,30
2017-01-16T11:23:06.791Z,30
2017-01-16T11:24:17.979Z,30
2017-01-16T11:25:28.769Z,30
2017-01-16T11:26:39.760Z,25
2017-01-16T11:27:50.721Z,25
2017-01-16T11:29:01.901Z,25
2017-01-16T11:30:13.453Z,25
2017-01-16T11:31:24.530Z,25
2017-01-16T11:32:35.380Z,25
2017-01-16T11:33:46.530Z,25
2017-01-16T11:34:57.437Z,25
2017-01-16T11:36:08.765Z,25
2017-01-16T11:37:19.603Z,25
2017-01-16T11:39:56.111Z,25
2017-01-16T11:41:07.458Z,25
2017-01-16T11:42:18.363Z,25
2017-01-16T11:43:29.329Z,25
2017-01-16T11:44:40.263Z,25
2017-01-16T11:45:51.397Z,25
2017-01-16T11:47:02.996Z,25
2017-01-16T11:48:28.277Z,25
2017-01-16T11:49:39.120Z,25
2017-01-16T11:50:50.061Z,25
2017-01-16T11:52:01.324Z,25
2017-01-16T11:53:12.138Z,25
2017-01-16T11:54:22.931Z,25
2017-01-16T11:55:33.719Z,30
2017-01-16T11:56:44.510Z,30
2017-01-16T11:57:55.297Z,25
2017-01-16T11:59:06.088Z,25
2017-01-16T12:00:16.874Z,25
2017-01-16T12:01:27.661Z,25
2017-01-16T12:02:38.451Z,25
2017-01-16T12:03:49.240Z,50
2017-01-16T12:05:00.676Z,50
2017-01-16T12:06:11.480Z,50
2017-01-16T12:07:22.308Z,50
2017-01-16T12:08:33.113Z,30
2017-01-16T12:09:43.969Z,30
2017-01-16T12:10:55.079Z,30
2017-01-16T12:12:06.728Z,25
2017-01-16T12:13:18.025Z,25
2017-01-16T12:14:29.229Z,25
2017-01-16T12:15:40.362Z,25
2017-01-16T12:16:51.358Z,30
2017-01-16T12:18:02.151Z,40
2017-01-16T12:19:13.181Z,35
2017-01-16T12:20:24.170Z,35
2017-01-16T12:21:35.492Z,50
2017-01-16T12:22:46.611Z,30
2017-01-16T12:23:57.625Z,30
2017-01-16T12:25:08.643Z,35
2017-01-16T12:26:19.434Z,60
2017-01-16T12:27:30.971Z,40
2017-01-16T12:28:41.872Z,35
2017-01-16T12:29:52.967Z,35
2017-01-16T12:31:03.848Z,65
2017-01-16T12:32:14.859Z,60
2017-01-16T12:33:26.213Z,55
2017-01-16T12:34:37.655Z,55
2017-01-16T12:35:48.669Z,40
2017-01-16T12:36:59.683Z,40
2017-01-16T12:38:10.809Z,65
2017-01-16T12:39:22.901Z,65
2017-01-16T12:40:33.910Z,65
2017-01-16T12:41:44.740Z,60
2017-01-16T12:42:55.543Z,60
2017-01-16T12:44:06.968Z,55
2017-01-16T12:45:18.028Z,55
2017-01-16T12:46:29.169Z,60
2017-01-16T12:47:39.970Z,65
2017-01-16T12:48:50.969Z,40
2017-01-16T12:50:01.984Z,40
2017-01-16T12:51:13.462Z,40
2017-01-16T12:52:24.387Z,80
2017-01-16T12:53:35.857Z,80
2017-01-16T12:54:47.567Z,65
2017-01-16T12:55:58.427Z,75
2017-01-16T12:57:10.095Z,80
2017-01-16T12:58:35.586Z,80
2017-01-16T12:59:46.588Z,75
2017-01-16T13:00:57.994Z,80
2017-01-16T13:02:09.372Z,80
2017-01-16T13:03:20.179Z,40
2017-01-16T13:04:31.327Z,35
2017-01-16T13:05:42.349Z,30
2017-01-16T13:06:53.236Z,30
2017-01-16T13:08:05.427Z,40
2017-01-16T13:09:16.539Z,40
2017-01-16T13:10:43.115Z,40
2017-01-16T13:11:53.920Z,35
2017-01-16T13:13:05.391Z,45
2017-01-16T13:14:16.619Z,40
2017-01-16T13:15:27.600Z,85
2017-01-16T13:16:38.420Z,55
2017-01-16T13:17:49.248Z,85
2017-01-16T13:19:00.243Z,80
2017-01-16T13:20:11.038Z,85
2017-01-16T13:21:21.844Z,75
2017-01-16T13:22:32.654Z,50
2017-01-16T13:23:43.462Z,80
2017-01-16T13:24:54.525Z,70
2017-01-16T13:26:05.327Z,80
2017-01-16T13:27:16.138Z,80
2017-01-16T13:28:26.929Z,50
2017-01-16T13:29:37.735Z,85
2017-01-16T13:30:48.733Z,85
2017-01-16T13:31:59.525Z,85
2017-01-16T13:33:10.322Z,80
2017-01-16T13:34:21.112Z,80
2017-01-16T13:35:31.911Z,85
2017-01-16T13:36:42.990Z,80
2017-01-16T13:37:53.842Z,75
2017-01-16T13:39:04.663Z,80
2017-01-16T13:40:15.483Z,85
2017-01-16T13:41:26.283Z,85
2017-01-16T13:42:37.080Z,95
2017-01-16T13:43:47.892Z,95
2017-01-16T13:44:58.746Z,100
2017-01-16T13:46:09.573Z,100
2017-01-16T13:47:20.371Z,50
2017-01-16T13:48:31.415Z,100
2017-01-16T13:49:42.210Z,70
2017-01-16T13:50:53.004Z,100
2017-01-16T13:52:03.795Z,80
2017-01-16T13:53:14.601Z,65
2017-01-16T13:54:25.436Z,75
2017-01-16T13:55:36.240Z,55
2017-01-16T13:56:47.050Z,55
2017-01-16T13:57:57.854Z,85
2017-01-16T13:59:08.650Z,60
2017-01-16T14:00:19.811Z,70
2017-01-16T14:01:45.085Z,50
2017-01-16T14:02:55.877Z,75
2017-01-16T14:04:06.682Z,65
2017-01-16T14:05:31.952Z,65
2017-01-16T14:06:42.745Z,80
2017-01-16T14:07:53.537Z,80
2017-01-16T14:09:04.332Z,80
2017-01-16T14:10:15.340Z,75
2017-01-16T14:11:40.686Z,45
2017-01-16T14:12:51.668Z,55
2017-01-16T14:14:02.529Z,80
2017-01-16T14:15:13.373Z,55
2017-01-16T14:16:24.201Z,70
2017-01-16T14:17:35.007Z,50
2017-01-16T14:18:45.824Z,45
2017-01-16T14:19:57.226Z,45
2017-01-16T14:21:08.021Z,65
2017-01-16T14:22:18.815Z,50
2017-01-16T14:23:29.606Z,55
2017-01-16T14:26:05.702Z,70
2017-01-16T14:27:30.976Z,70
2017-01-16T14:28:41.771Z,70
2017-01-16T14:30:07.041Z,70
2017-01-16T14:31:17.853Z,65
2017-01-16T14:32:43.133Z,65
2017-01-16T14:33:53.929Z,65
2017-01-16T14:35:04.757Z,60
2017-01-16T14:36:15.555Z,45
2017-01-16T14:37:26.454Z,40
2017-01-16T14:38:37.900Z,55
2017-01-16T14:39:48.745Z,45
2017-01-16T14:41:14.057Z,40
2017-01-16T14:42:24.851Z,45
2017-01-16T14:43:35.652Z,40
2017-01-16T14:44:46.491Z,55
2017-01-16T14:45:57.291Z,55
2017-01-16T14:47:08.086Z,55
2017-01-16T14:48:19.146Z,55
2017-01-16T14:49:29.939Z,50
2017-01-16T14:50:40.736Z,50
2017-01-16T14:51:51.720Z,50
2017-01-16T14:53:02.535Z,50
2017-01-16T14:54:13.328Z,50
2017-01-16T14:55:24.120Z,50
2017-01-16T14:56:34.917Z,45
2017-01-16T14:58:00.190Z,45
2017-01-16T14:59:11.345Z,45
2017-01-16T15:00:22.142Z,45
2017-01-16T15:01:33.342Z,50
2017-01-16T15:02:44.750Z,55
2017-01-16T15:03:55.592Z,55
2017-01-16T15:05:20.871Z,55
2017-01-16T15:06:31.683Z,55
2017-01-16T15:07:42.477Z,55
2017-01-16T15:08:53.271Z,60
2017-01-16T15:10:04.262Z,60
2017-01-16T15:11:15.053Z,65
2017-01-16T15:12:25.841Z,60
2017-01-16T15:13:36.646Z,45
2017-01-16T15:15:01.923Z,50
2017-01-16T15:16:12.716Z,55
2017-01-16T15:17:23.511Z,65
2017-01-16T15:18:34.316Z,55
2017-01-16T15:19:45.107Z,55
2017-01-16T15:20:56.257Z,85
2017-01-16T15:22:07.060Z,85
2017-01-16T15:23:17.887Z,85
2017-01-16T15:24:28.683Z,90
2017-01-16T15:25:39.480Z,90
2017-01-16T15:26:50.529Z,90
2017-01-16T15:28:01.320Z,85
2017-01-16T15:29:12.115Z,55
2017-01-16T15:30:22.916Z,90
2017-01-16T15:31:33.707Z,90
2017-01-16T15:32:44.507Z,60
2017-01-16T15:33:55.301Z,45
2017-01-16T15:35:06.101Z,90
2017-01-16T15:37:42.196Z,90
2017-01-16T15:38:53.004Z,95
2017-01-16T15:40:03.833Z,95
2017-01-16T15:41:14.653Z,95
2017-01-16T15:42:26.070Z,90
2017-01-16T15:43:36.869Z,85
2017-01-16T15:44:47.670Z,60
2017-01-16T15:46:12.939Z,85
2017-01-16T15:47:23.770Z,85
2017-01-16T15:48:34.776Z,85
2017-01-16T15:49:45.593Z,85
2017-01-16T15:50:56.401Z,85
2017-01-16T15:52:07.204Z,85
2017-01-16T15:53:18.025Z,85
2017-01-16T15:54:29.067Z,85
2017-01-16T15:55:39.890Z,85
2017-01-16T15:57:05.171Z,85
2017-01-16T15:58:15.971Z,85
2017-01-16T15:59:27.118Z,85
2017-01-16T16:00:52.393Z,40
2017-01-16T16:02:03.193Z,45
2017-01-16T16:03:14.022Z,80
2017-01-16T16:04:39.327Z,50
2017-01-16T16:05:50.130Z,75
2017-01-16T16:07:00.942Z,45
2017-01-16T16:08:11.737Z,40
2017-01-16T16:09:22.532Z,45
2017-01-16T16:10:33.538Z,40
2017-01-16T16:11:44.338Z,70
2017-01-16T16:12:55.159Z,35
2017-01-16T16:14:06.588Z,40
2017-01-16T16:15:17.395Z,50
2017-01-16T16:17:54.576Z,75
2017-01-16T16:19:05.985Z,70
2017-01-16T16:20:16.782Z,70
2017-01-16T16:21:27.581Z,65
2017-01-16T16:22:38.372Z,40
2017-01-16T16:23:49.172Z,60
2017-01-16T16:24:59.977Z,40
2017-01-16T16:26:10.801Z,40
2017-01-16T16:27:21.602Z,35
2017-01-16T16:28:32.402Z,35
2017-01-16T16:29:43.191Z,40
2017-01-16T16:30:54.004Z,40
2017-01-16T16:32:04.795Z,45
2017-01-16T16:33:15.591Z,45
2017-01-16T16:34:26.385Z,40
2017-01-16T16:35:37.171Z,55
2017-01-16T16:36:47.961Z,70
2017-01-16T16:38:13.229Z,75
2017-01-16T16:39:24.018Z,50
2017-01-16T16:40:34.818Z,50
2017-01-16T16:42:00.099Z,40
2017-01-16T16:43:11.143Z,25
2017-01-16T16:44:21.940Z,20
2017-01-16T16:45:32.742Z,20
2017-01-16T16:48:08.849Z,15
2017-01-16T16:49:19.890Z,15
2017-01-16T16:50:30.695Z,15
2017-01-16T16:53:06.767Z,20
2017-01-16T16:54:17.967Z,20
2017-01-16T16:55:28.764Z,20
2017-01-16T16:56:39.568Z,20
2017-01-16T16:57:50.366Z,20
2017-01-16T16:59:01.176Z,20
2017-01-16T17:00:12.328Z,20
2017-01-16T17:01:23.118Z,25
2017-01-16T17:02:33.938Z,25
2017-01-16T17:03:44.756Z,25
2017-01-16T17:04:55.557Z,25
2017-01-16T17:06:06.361Z,25
2017-01-16T17:07:17.163Z,25
2017-01-16T17:08:27.968Z,25
2017-01-16T17:09:53.268Z,25
2017-01-16T17:11:04.309Z,25
2017-01-16T17:12:29.586Z,25
2017-01-16T17:15:05.651Z,20
2017-01-16T17:16:16.446Z,20
2017-01-16T17:17:27.230Z,20
2017-01-16T17:18:38.021Z,20
2017-01-16T17:19:48.815Z,25
2017-01-16T17:20:59.602Z,25
2017-01-16T17:22:10.740Z,25
2017-01-16T17:23:21.525Z,25
2017-01-16T17:24:32.320Z,25
2017-01-16T17:25:43.107Z,25
2017-01-16T17:26:53.891Z,25
2017-01-16T17:28:04.939Z,25
2017-01-16T17:29:15.725Z,25
2017-01-16T17:30:26.506Z,25
2017-01-16T17:31:37.297Z,25
2017-01-16T17:32:48.088Z,25
2017-01-16T17:33:58.876Z,25
2017-01-16T17:35:09.667Z,25
2017-01-16T17:36:20.461Z,25
2017-01-16T17:37:31.255Z,25
2017-01-16T17:38:42.046Z,25
2017-01-16T17:39:52.856Z,25
2017-01-16T17:41:32.598Z,25
2017-01-16T17:42:43.408Z,25
2017-01-16T17:43:54.203Z,25
2017-01-16T17:45:19.476Z,25
2017-01-16T17:46:30.271Z,25
2017-01-16T17:47:41.064Z,30
2017-01-16T17:48:51.856Z,30
2017-01-16T17:50:17.382Z,30
2017-01-16T17:51:28.177Z,25
2017-01-16T17:52:39.588Z,25
2017-01-16T17:53:50.394Z,25
2017-01-16T17:56:40.957Z,25
2017-01-16T17:57:51.784Z,25
2017-01-16T17:59:02.576Z,25
2017-01-16T18:00:13.384Z,30
2017-01-16T18:01:24.191Z,30
2017-01-16T18:02:34.992Z,30
2017-01-16T18:03:45.795Z,25
2017-01-16T18:04:57.211Z,25
2017-01-16T18:06:08.002Z,25
2017-01-16T18:07:18.799Z,25
2017-01-16T18:08:29.594Z,25
2017-01-16T18:09:40.384Z,25
2017-01-16T18:10:51.796Z,25
2017-01-16T18:12:03.421Z,20
2017-01-16T18:13:14.215Z,20
2017-01-16T18:14:25.017Z,20
2017-01-16T18:15:35.808Z,20
2017-01-16T18:16:46.600Z,15
2017-01-16T18:17:57.396Z,15
2017-01-16T18:19:08.213Z,10
2017-01-16T18:20:48.563Z,10
2017-01-16T18:21:59.350Z,10
2017-01-16T18:23:24.610Z,10
2017-01-16T18:24:35.396Z,5
2017-01-16T18:25:46.186Z,10
2017-01-16T18:27:25.927Z,10
2017-01-16T18:28:36.720Z,10
2017-01-16T18:29:47.505Z,5
2017-01-16T18:31:12.768Z,5
2017-01-16T18:32:23.584Z,5
2017-01-16T18:33:34.383Z,5
2017-01-16T18:34:45.796Z,5
2017-01-16T18:35:56.783Z,5
2017-01-16T18:37:07.576Z,5
2017-01-16T18:38:18.369Z,5
2017-01-16T18:39:29.162Z,5
2017-01-16T18:40:40.157Z,5
2017-01-16T18:41:50.969Z,5
2017-01-16T18:43:16.236Z,5
2017-01-16T18:44:27.032Z,5
2017-01-16T18:45:38.030Z,5
2017-01-16T18:46:48.821Z,5
2017-01-16T18:47:59.611Z,5
2017-01-16T18:49:11.469Z,5
2017-01-16T18:50:22.868Z,0
2017-01-16T18:51:33.659Z,0
2017-01-16T18:52:58.925Z,0
2017-01-16T18:54:09.720Z,5
2017-01-16T18:55:20.513Z,5
2017-01-16T18:56:31.303Z,5
2017-01-16T18:57:42.095Z,5
2017-01-16T19:00:18.157Z,5
2017-01-16T19:01:43.423Z,5
2017-01-16T19:03:08.692Z,5
2017-01-16T19:04:19.478Z,5
2017-01-16T19:05:30.272Z,5
2017-01-16T19:06:41.058Z,10
2017-01-16T19:07:51.838Z,10
2017-01-16T19:09:02.635Z,10
2017-01-16T19:10:13.436Z,10
2017-01-16T19:11:24.229Z,10
2017-01-16T19:12:35.019Z,10
2017-01-16T19:13:45.804Z,10
2017-01-16T19:14:57.448Z,10
2017-01-16T19:16:08.421Z,5
2017-01-16T19:17:20.015Z,5
2017-01-16T19:18:30.816Z,5
2017-01-16T19:19:41.607Z,5
2017-01-16T19:20:52.399Z,5
2017-01-16T19:22:03.202Z,5
2017-01-16T19:23:14.017Z,5
2017-01-16T19:24:25.408Z,5
2017-01-16T19:25:36.497Z,5
2017-01-16T19:26:47.292Z,0
2017-01-16T19:27:58.087Z,0
2017-01-16T19:29:08.890Z,0
2017-01-16T19:30:19.702Z,0
2017-01-16T19:31:30.493Z,0
2017-01-16T19:32:41.281Z,0
2017-01-16T19:33:52.071Z,0
2017-01-16T19:35:02.859Z,0
2017-01-16T19:36:13.646Z,0
2017-01-16T19:37:24.433Z,0
2017-01-16T19:38:35.219Z,0
2017-01-16T19:39:46.008Z,0
2017-01-16T19:40:56.796Z,0
2017-01-16T19:42:07.581Z,0
2017-01-16T19:43:18.665Z,0
2017-01-16T19:44:29.454Z,0
2017-01-16T19:45:54.717Z,0
2017-01-16T19:47:05.506Z,0
2017-01-16T19:48:16.595Z,0
2017-01-16T19:49:27.388Z,0
2017-01-16T19:50:38.179Z,0
2017-01-16T19:51:48.968Z,0
2017-01-16T19:52:59.757Z,0
2017-01-16T19:54:10.545Z,0
2017-01-16T19:55:21.334Z,0
2017-01-16T19:56:32.120Z,0
2017-01-16T19:57:42.902Z,0
2017-01-16T19:58:53.691Z,0
2017-01-16T20:00:04.780Z,0
2017-01-16T20:01:15.568Z,0
2017-01-16T20:02:26.357Z,0
2017-01-16T20:03:37.146Z,0
2017-01-16T20:04:47.938Z,0
2017-01-16T20:06:13.199Z,0
2017-01-16T20:07:23.991Z,0
2017-01-16T20:08:34.775Z,0
2017-01-16T20:09:45.561Z,0
2017-01-16T20:10:56.648Z,0
2017-01-16T20:12:07.436Z,0
2017-01-16T20:13:18.217Z,0
2017-01-16T20:14:29.002Z,0
2017-01-16T20:15:39.791Z,0
2017-01-16T20:16:50.605Z,0
2017-01-16T20:18:02.007Z,0
2017-01-16T20:19:12.796Z,0
2017-01-16T20:20:23.584Z,0
2017-01-16T20:21:34.388Z,0
2017-01-16T20:22:45.525Z,0
2017-01-16T20:23:56.308Z,0
2017-01-16T20:25:07.125Z,0
2017-01-16T20:26:17.912Z,0
2017-01-16T20:27:28.696Z,0
2017-01-16T20:28:39.835Z,0
2017-01-16T20:29:50.622Z,0
2017-01-16T20:31:01.428Z,0
2017-01-16T20:32:12.215Z,0
2017-01-16T20:33:23.002Z,0
2017-01-16T20:34:33.789Z,0
2017-01-16T20:35:44.573Z,0
2017-01-16T20:36:55.362Z,0
2017-01-16T20:38:06.766Z,0
2017-01-16T20:39:17.556Z,0
2017-01-16T20:40:28.951Z,0
2017-01-16T20:41:39.742Z,0
2017-01-16T20:42:50.531Z,0
2017-01-16T20:44:01.326Z,0
2017-01-16T20:45:12.914Z,0
2017-01-16T20:46:23.710Z,0
2017-01-16T20:47:34.529Z,0
2017-01-16T20:48:45.320Z,0
2017-01-16T20:49:56.113Z,0
2017-01-16T20:51:06.903Z,0
2017-01-16T20:52:17.719Z,0
2017-01-16T20:53:28.509Z,0
2017-01-16T20:54:39.299Z,0
2017-01-16T20:55:50.091Z,0
2017-01-16T20:57:00.878Z,0
2017-01-16T20:58:12.017Z,0
2017-01-16T20:59:22.810Z,0
2017-01-16T21:00:33.600Z,0
2017-01-16T21:01:44.392Z,0
2017-01-16T21:02:55.180Z,0
2017-01-16T21:04:05.967Z,0
2017-01-16T21:05:16.755Z,0
2017-01-16T21:06:27.546Z,0
2017-01-16T21:07:38.333Z,0
2017-01-16T21:08:49.120Z,0
2017-01-16T21:10:00.161Z,0
2017-01-16T21:11:10.982Z,0
2017-01-16T21:12:21.804Z,0
2017-01-16T21:13:32.593Z,0
2017-01-16T21:14:43.385Z,0
2017-01-16T21:15:54.166Z,0
2017-01-16T21:17:04.954Z,0
2017-01-16T21:18:16.361Z,0
2017-01-16T21:19:27.152Z,0
2017-01-16T21:20:37.942Z,0
2017-01-16T21:21:48.983Z,0
2017-01-16T21:22:59.772Z,0
2017-01-16T21:24:10.564Z,0
2017-01-16T21:25:21.354Z,0
2017-01-16T21:26:46.968Z,0
2017-01-16T21:27:57.755Z,0
2017-01-16T21:29:08.549Z,0
2017-01-16T21:30:19.366Z,0
2017-01-16T21:31:30.150Z,0
2017-01-16T21:32:41.185Z,0
2017-01-16T21:34:06.460Z,0
2017-01-16T21:35:17.258Z,0
2017-01-16T21:36:28.061Z,0
2017-01-16T21:37:39.209Z,0
2017-01-16T21:38:50.014Z,0
2017-01-16T21:40:00.808Z,0
2017-01-16T21:41:11.604Z,0
2017-01-16T21:42:22.399Z,0
2017-01-16T21:43:33.202Z,0
2017-01-16T21:44:44.008Z,0
2017-01-16T21:45:54.810Z,0
2017-01-16T21:47:05.608Z,0
2017-01-16T21:48:16.410Z,0
2017-01-16T21:49:28.188Z,0
2017-01-16T21:50:38.999Z,0
2017-01-16T21:51:49.803Z,0
2017-01-16T21:53:00.615Z,0
2017-01-16T21:54:11.421Z,0
2017-01-16T21:55:22.223Z,0
2017-01-16T21:56:33.026Z,0
2017-01-16T21:57:43.836Z,0
2017-01-16T21:58:54.637Z,0
2017-01-16T22:00:20.263Z,0
2017-01-16T22:01:31.072Z,0
2017-01-16T22:02:41.880Z,0
2017-01-16T22:03:52.682Z,0
2017-01-16T22:05:03.481Z,0
2017-01-16T22:06:15.227Z,0
2017-01-16T22:07:26.017Z,0
2017-01-16T22:08:51.287Z,0
2017-01-16T22:10:02.073Z,0
2017-01-16T22:11:13.069Z,0
2017-01-16T22:12:23.872Z,0
2017-01-16T22:15:14.404Z,0
2017-01-16T22:16:39.664Z,0
2017-01-16T22:17:50.450Z,0
2017-01-16T22:19:01.258Z,0
2017-01-16T22:20:12.054Z,0
2017-01-16T22:21:23.048Z,0
2017-01-16T22:22:33.835Z,0
2017-01-16T22:23:44.633Z,0
2017-01-16T22:24:55.421Z,0
2017-01-16T22:26:06.232Z,0
2017-01-16T22:27:31.751Z,0
2017-01-16T22:28:42.554Z,0
2017-01-16T22:29:53.352Z,0
2017-01-16T22:31:04.148Z,0
2017-01-16T22:32:15.139Z,0
2017-01-16T22:33:25.931Z,0
2017-01-16T22:34:36.721Z,0
2017-01-16T22:35:47.514Z,0
2017-01-16T22:36:58.305Z,0
2017-01-16T22:38:09.106Z,0
2017-01-16T22:39:19.892Z,0
2017-01-16T22:40:30.679Z,0
2017-01-16T22:41:41.495Z,0
2017-01-16T22:42:52.279Z,0
2017-01-16T22:44:03.079Z,0
2017-01-16T22:45:13.872Z,0
2017-01-16T22:46:24.663Z,0
2017-01-16T22:47:35.455Z,0
2017-01-16T22:48:46.241Z,0
2017-01-16T22:49:57.379Z,0
2017-01-16T22:51:08.198Z,0
2017-01-16T22:52:18.979Z,0
2017-01-16T22:53:29.793Z,0
2017-01-16T22:54:40.580Z,0
2017-01-16T22:55:51.366Z,0
2017-01-16T22:57:02.152Z,0
2017-01-16T22:58:12.935Z,0
2017-01-16T22:59:23.720Z,0
2017-01-16T23:00:34.512Z,0
2017-01-16T23:01:45.301Z,0
2017-01-16T23:02:56.089Z,0
2017-01-16T23:04:07.481Z,0
2017-01-16T23:05:18.267Z,0
2017-01-16T23:06:29.078Z,0
2017-01-16T23:07:40.223Z,0
2017-01-16T23:08:51.017Z,0
2017-01-16T23:10:02.511Z,0
2017-01-16T23:11:13.319Z,0
2017-01-16T23:12:24.116Z,0
2017-01-16T23:13:35.256Z,0
2017-01-16T23:14:46.045Z,0
2017-01-16T23:15:56.837Z,0
2017-01-16T23:17:07.626Z,0
2017-01-16T23:18:18.423Z,0
2017-01-16T23:19:29.472Z,0
2017-01-16T23:20:40.299Z,0
2017-01-16T23:21:51.099Z,0
2017-01-16T23:23:02.496Z,0
2017-01-16T23:24:13.290Z,0
2017-01-16T23:25:24.077Z,0
2017-01-16T23:26:34.883Z,0
2017-01-16T23:27:45.674Z,0
2017-01-16T23:28:56.468Z,0
2017-01-16T23:30:07.260Z,0
2017-01-16T23:31:18.401Z,0
2017-01-16T23:32:29.190Z,0
2017-01-16T23:33:39.980Z,0
2017-01-16T23:36:16.329Z,0
2017-01-16T23:37:27.743Z,0
2017-01-16T23:38:38.555Z,0
2017-01-16T23:40:03.834Z,0
2017-01-16T23:41:14.654Z,0
2017-01-16T23:42:25.485Z,0
2017-01-16T23:43:36.293Z,0
2017-01-16T23:44:47.148Z,0
2017-01-16T23:45:57.957Z,0
2017-01-16T23:47:09.106Z,0
2017-01-16T23:48:19.951Z,0
2017-01-16T23:49:30.745Z,0
2017-01-16T23:50:41.592Z,0
2017-01-16T23:52:06.883Z,0
2017-01-16T23:53:17.671Z,0
2017-01-16T23:54:28.471Z,0
2017-01-16T23:55:39.277Z,0
2017-01-16T23:56:50.111Z,0
2017-01-16T23:58:00.913Z,0
2017-01-16T23:59:11.716Z,0
